createdAt,value
2019-05-18T00:02:12.652Z,13.20
2019-05-18T00:04:43.629Z,13.20
2019-05-18T00:07:14.473Z,13.20
2019-05-18T00:09:45.335Z,13.20
2019-05-18T00:12:15.974Z,13.20
2019-05-18T00:14:46.470Z,13.20
2019-05-18T00:17:25.036Z,13.20
2019-05-18T00:19:49.986Z,13.20
2019-05-18T00:22:21.043Z,13.20
2019-05-18T00:24:51.703Z,13.30
2019-05-18T00:27:22.715Z,13.30
2019-05-18T00:29:53.414Z,13.20
2019-05-18T00:32:24.409Z,13.30
2019-05-18T00:34:54.990Z,13.30
2019-05-18T00:37:25.517Z,13.30
2019-05-18T00:39:56.306Z,13.30
2019-05-18T00:42:27.200Z,13.30
2019-05-18T00:44:57.853Z,13.30
2019-05-18T00:47:40.367Z,13.30
2019-05-18T00:50:00.854Z,13.30
2019-05-18T00:52:32.694Z,13.40
2019-05-18T00:55:03.650Z,13.40
2019-05-18T00:57:34.503Z,13.40
2019-05-18T01:00:06.289Z,13.40
2019-05-18T01:02:37.587Z,13.40
2019-05-18T01:05:08.342Z,13.30
2019-05-18T01:07:39.181Z,13.30
2019-05-18T01:10:10.218Z,13.40
2019-05-18T01:12:41.223Z,13.40
2019-05-18T01:15:12.457Z,13.40
2019-05-18T01:17:56.459Z,13.30
2019-05-18T01:20:16.633Z,13.30
2019-05-18T01:22:47.607Z,13.30
2019-05-18T01:25:19.291Z,13.30
2019-05-18T01:27:50.160Z,13.40
2019-05-18T01:30:21.030Z,13.30
2019-05-18T01:32:51.861Z,13.30
2019-05-18T01:35:22.829Z,13.30
2019-05-18T01:37:53.651Z,13.30
2019-05-18T01:40:24.136Z,13.30
2019-05-18T01:42:54.703Z,13.30
2019-05-18T01:45:25.510Z,13.30
2019-05-18T01:47:56.297Z,13.30
2019-05-18T01:50:26.873Z,13.40
2019-05-18T01:52:58.008Z,13.30
2019-05-18T01:55:28.770Z,13.30
2019-05-18T01:57:59.362Z,13.40
2019-05-18T02:00:30.089Z,13.40
2019-05-18T02:03:00.961Z,13.40
2019-05-18T02:05:31.803Z,13.40
2019-05-18T02:08:02.721Z,13.30
2019-05-18T02:10:33.381Z,13.30
2019-05-18T02:13:04.033Z,13.40
2019-05-18T02:15:34.838Z,13.40
2019-05-18T02:18:05.486Z,13.30
2019-05-18T02:20:36.572Z,13.40
2019-05-18T02:23:07.361Z,13.40
2019-05-18T02:25:38.008Z,13.40
2019-05-18T02:28:08.725Z,13.40
2019-05-18T02:30:39.890Z,13.40
2019-05-18T02:33:10.488Z,13.40
2019-05-18T02:35:41.255Z,13.50
2019-05-18T02:38:16.055Z,13.50
2019-05-18T02:40:47.410Z,13.50
2019-05-18T02:43:18.359Z,13.40
2019-05-18T02:45:49.494Z,13.50
2019-05-18T02:48:20.477Z,13.40
2019-05-18T02:50:51.192Z,13.40
2019-05-18T02:53:21.807Z,13.50
2019-05-18T02:55:53.627Z,13.40
2019-05-18T02:58:24.331Z,13.40
2019-05-18T03:00:55.166Z,13.50
2019-05-18T03:03:25.979Z,13.40
2019-05-18T03:05:56.638Z,13.50
2019-05-18T03:08:27.390Z,13.50
2019-05-18T03:10:57.992Z,13.40
2019-05-18T03:13:28.484Z,13.50
2019-05-18T03:15:58.917Z,13.50
2019-05-18T03:18:29.774Z,13.50
2019-05-18T03:21:00.931Z,13.50
2019-05-18T03:23:31.759Z,13.50
2019-05-18T03:26:02.587Z,13.50
2019-05-18T03:28:33.234Z,13.50
2019-05-18T03:31:04.061Z,13.50
2019-05-18T03:33:34.806Z,13.60
2019-05-18T03:36:05.646Z,13.60
2019-05-18T03:38:36.255Z,13.60
2019-05-18T03:41:07.135Z,13.60
2019-05-18T03:43:37.647Z,13.60
2019-05-18T03:46:08.403Z,13.60
2019-05-18T03:48:38.985Z,13.70
2019-05-18T03:51:09.860Z,13.70
2019-05-18T03:53:40.642Z,13.70
2019-05-18T03:56:11.426Z,13.70
2019-05-18T03:58:42.282Z,13.70
2019-05-18T04:01:13.082Z,13.70
2019-05-18T04:03:43.934Z,13.80
2019-05-18T04:06:14.825Z,13.80
2019-05-18T04:08:45.651Z,13.80
2019-05-18T04:11:16.211Z,13.80
2019-05-18T04:13:48.047Z,13.80
2019-05-18T04:16:18.726Z,13.80
2019-05-18T04:18:49.387Z,13.80
2019-05-18T04:21:20.091Z,13.90
2019-05-18T04:23:50.946Z,13.90
2019-05-18T04:26:21.544Z,13.90
2019-05-18T04:28:52.297Z,13.90
2019-05-18T04:31:23.219Z,14.00
2019-05-18T04:33:53.863Z,13.90
2019-05-18T04:36:24.812Z,14.00
2019-05-18T04:38:55.637Z,14.00
2019-05-18T04:41:26.287Z,14.10
2019-05-18T04:43:57.733Z,14.10
2019-05-18T04:46:28.655Z,14.10
2019-05-18T04:48:59.239Z,14.20
2019-05-18T04:51:29.839Z,14.20
2019-05-18T04:54:00.665Z,14.30
2019-05-18T04:56:31.557Z,14.40
2019-05-18T04:59:02.137Z,14.40
2019-05-18T05:01:32.948Z,14.40
2019-05-18T05:04:03.566Z,14.50
2019-05-18T05:06:34.564Z,14.50
2019-05-18T05:09:07.080Z,14.50
2019-05-18T05:11:38.157Z,14.60
2019-05-18T05:14:08.990Z,14.70
2019-05-18T05:16:40.039Z,14.80
2019-05-18T05:19:10.662Z,14.90
2019-05-18T05:21:41.373Z,14.90
2019-05-18T05:24:12.256Z,15.00
2019-05-18T05:26:42.893Z,15.10
2019-05-18T05:29:13.639Z,15.20
2019-05-18T05:31:44.455Z,15.20
2019-05-18T05:34:15.133Z,15.30
2019-05-18T05:36:45.757Z,15.40
2019-05-18T05:39:17.569Z,15.40
2019-05-18T05:41:48.187Z,15.50
2019-05-18T05:44:18.759Z,15.60
2019-05-18T05:46:49.482Z,15.60
2019-05-18T05:49:20.177Z,15.70
2019-05-18T05:51:51.194Z,15.80
2019-05-18T05:54:21.866Z,16.00
2019-05-18T05:56:52.526Z,16.20
2019-05-18T05:59:23.367Z,16.30
2019-05-18T06:01:54.189Z,16.40
2019-05-18T06:04:25.030Z,16.50
2019-05-18T06:06:55.866Z,16.50
2019-05-18T06:09:26.518Z,16.60
2019-05-18T06:11:57.393Z,16.60
2019-05-18T06:14:28.389Z,16.60
2019-05-18T06:16:59.022Z,16.60
2019-05-18T06:19:30.057Z,16.70
2019-05-18T06:22:00.889Z,16.80
2019-05-18T06:24:31.525Z,16.90
2019-05-18T06:27:02.285Z,16.90
2019-05-18T06:29:32.880Z,16.90
2019-05-18T06:32:03.629Z,16.80
2019-05-18T06:34:53.589Z,16.80
2019-05-18T06:37:24.153Z,16.80
2019-05-18T06:39:54.695Z,16.70
2019-05-18T06:42:25.397Z,16.70
2019-05-18T06:44:56.241Z,16.70
2019-05-18T06:47:28.473Z,16.60
2019-05-18T06:49:59.152Z,16.60
2019-05-18T06:52:30.008Z,16.60
2019-05-18T06:55:00.592Z,16.60
2019-05-18T06:57:32.269Z,16.70
2019-05-18T07:00:03.221Z,16.80
2019-05-18T07:02:34.341Z,16.90
2019-05-18T07:05:05.261Z,17.00
2019-05-18T07:07:36.137Z,17.20
2019-05-18T07:10:07.068Z,17.40
2019-05-18T07:12:38.091Z,17.60
2019-05-18T07:15:10.299Z,17.70
2019-05-18T07:17:40.975Z,17.80
2019-05-18T07:20:11.530Z,17.80
2019-05-18T07:22:42.301Z,17.90
2019-05-18T07:25:13.835Z,17.90
2019-05-18T07:27:44.482Z,17.90
2019-05-18T07:30:16.170Z,17.90
2019-05-18T07:32:47.085Z,18.00
2019-05-18T07:35:17.988Z,18.00
2019-05-18T07:37:48.746Z,18.00
2019-05-18T07:40:19.380Z,18.10
2019-05-18T07:42:49.882Z,18.10
2019-05-18T07:45:20.681Z,18.10
2019-05-18T07:47:51.501Z,18.20
2019-05-18T07:50:22.387Z,18.20
2019-05-18T07:52:53.209Z,18.30
2019-05-18T07:55:23.987Z,18.30
2019-05-18T07:57:54.829Z,18.40
2019-05-18T08:00:25.697Z,18.40
2019-05-18T08:02:56.498Z,18.50
2019-05-18T08:05:27.337Z,18.50
2019-05-18T08:07:58.263Z,18.70
2019-05-18T08:10:38.743Z,19.00
2019-05-18T08:13:09.679Z,19.40
2019-05-18T08:15:40.845Z,19.80
2019-05-18T08:18:11.583Z,20.20
2019-05-18T08:20:42.594Z,20.40
2019-05-18T08:23:14.098Z,20.60
2019-05-18T08:25:45.097Z,20.80
2019-05-18T08:28:15.766Z,21.00
2019-05-18T08:30:46.282Z,21.10
2019-05-18T08:33:16.807Z,21.20
2019-05-18T08:35:47.549Z,21.30
2019-05-18T08:38:18.122Z,21.30
2019-05-18T08:40:48.891Z,21.50
2019-05-18T08:43:19.712Z,21.60
2019-05-18T08:45:50.335Z,21.70
2019-05-18T08:48:20.906Z,21.80
2019-05-18T08:50:51.689Z,21.80
2019-05-18T08:53:24.035Z,21.80
2019-05-18T08:55:54.868Z,21.80
2019-05-18T08:58:25.708Z,21.80
2019-05-18T09:00:56.527Z,21.80
2019-05-18T09:03:27.356Z,21.90
2019-05-18T09:05:58.242Z,22.00
2019-05-18T09:08:29.041Z,22.00
2019-05-18T09:10:59.693Z,22.10
2019-05-18T09:13:30.524Z,22.10
2019-05-18T09:16:01.941Z,22.20
2019-05-18T09:18:32.746Z,22.20
2019-05-18T09:21:03.521Z,22.20
2019-05-18T09:23:34.214Z,22.30
2019-05-18T09:26:04.791Z,22.50
2019-05-18T09:28:35.609Z,22.80
2019-05-18T09:31:06.307Z,23.20
2019-05-18T09:33:37.096Z,23.50
2019-05-18T09:36:07.705Z,23.60
2019-05-18T09:38:38.457Z,23.90
2019-05-18T09:41:09.329Z,24.10
2019-05-18T09:43:40.142Z,24.30
2019-05-18T09:46:10.987Z,24.30
2019-05-18T09:48:41.608Z,23.90
2019-05-18T09:51:12.341Z,23.70
2019-05-18T09:53:51.083Z,23.50
2019-05-18T09:56:15.632Z,23.20
2019-05-18T09:58:46.414Z,23.00
2019-05-18T10:01:17.223Z,22.80
2019-05-18T10:03:48.066Z,22.70
2019-05-18T10:06:18.902Z,22.70
2019-05-18T10:08:50.065Z,22.60
2019-05-18T10:11:20.950Z,22.50
2019-05-18T10:13:51.670Z,22.30
2019-05-18T10:16:22.381Z,22.20
2019-05-18T10:18:53.120Z,22.40
2019-05-18T10:21:23.780Z,22.80
2019-05-18T10:23:54.213Z,23.10
2019-05-18T10:26:25.021Z,23.20
2019-05-18T10:28:56.165Z,23.10
2019-05-18T10:31:26.765Z,23.10
2019-05-18T10:33:57.494Z,23.10
2019-05-18T10:36:28.331Z,23.00
2019-05-18T10:38:59.165Z,23.20
2019-05-18T10:41:30.037Z,23.40
2019-05-18T10:44:00.839Z,23.60
2019-05-18T10:46:31.497Z,24.10
2019-05-18T10:49:02.209Z,24.50
2019-05-18T10:51:33.042Z,25.00
2019-05-18T10:54:03.997Z,25.50
2019-05-18T10:56:34.766Z,25.90
2019-05-18T10:59:05.575Z,26.20
2019-05-18T11:01:36.395Z,26.50
2019-05-18T11:04:07.227Z,26.70
2019-05-18T11:06:37.858Z,27.00
2019-05-18T11:09:08.607Z,26.80
2019-05-18T11:11:39.541Z,27.00
2019-05-18T11:14:10.265Z,27.40
2019-05-18T11:16:41.098Z,27.80
2019-05-18T11:19:11.757Z,27.80
2019-05-18T11:21:42.673Z,27.80
2019-05-18T11:24:13.391Z,27.60
2019-05-18T11:26:44.185Z,27.30
2019-05-18T11:29:14.980Z,27.00
2019-05-18T11:31:45.824Z,26.90
2019-05-18T11:34:16.662Z,26.80
2019-05-18T11:36:47.510Z,26.70
2019-05-18T11:39:18.339Z,26.70
2019-05-18T11:41:49.213Z,26.50
2019-05-18T11:44:20.026Z,26.50
2019-05-18T11:46:50.638Z,26.30
2019-05-18T11:49:21.408Z,26.50
2019-05-18T11:51:52.285Z,26.60
2019-05-18T11:54:22.825Z,26.70
2019-05-18T11:56:53.598Z,26.50
2019-05-18T11:59:24.460Z,26.60
2019-05-18T12:01:55.112Z,26.70
2019-05-18T12:04:25.600Z,26.70
2019-05-18T12:06:56.335Z,26.70
2019-05-18T12:09:27.016Z,26.70
2019-05-18T12:11:57.701Z,26.80
2019-05-18T12:14:28.201Z,26.90
2019-05-18T12:16:58.870Z,26.60
2019-05-18T12:19:29.390Z,26.40
2019-05-18T12:22:00.164Z,26.20
2019-05-18T12:24:30.892Z,26.00
2019-05-18T12:27:01.832Z,26.00
2019-05-18T12:29:32.397Z,25.90
2019-05-18T12:32:03.493Z,25.90
2019-05-18T12:34:34.310Z,26.00
2019-05-18T12:37:05.029Z,26.00
2019-05-18T12:39:35.982Z,26.10
2019-05-18T12:42:07.704Z,26.30
2019-05-18T12:44:38.579Z,26.30
2019-05-18T12:47:09.252Z,26.40
2019-05-18T12:49:39.997Z,26.50
2019-05-18T12:52:10.577Z,26.40
2019-05-18T12:54:46.703Z,26.30
2019-05-18T12:57:14.386Z,26.20
2019-05-18T12:59:45.175Z,26.10
2019-05-18T13:02:16.130Z,26.00
2019-05-18T13:04:46.803Z,25.90
2019-05-18T13:07:17.513Z,25.80
2019-05-18T13:09:48.070Z,25.60
2019-05-18T13:12:18.781Z,25.30
2019-05-18T13:14:49.329Z,25.10
2019-05-18T13:17:21.384Z,24.90
2019-05-18T13:19:52.246Z,24.80
2019-05-18T13:22:22.874Z,24.70
2019-05-18T13:24:53.809Z,24.60
2019-05-18T13:27:38.426Z,24.40
2019-05-18T13:29:56.509Z,24.40
2019-05-18T13:32:27.332Z,24.30
2019-05-18T13:34:57.870Z,24.30
2019-05-18T13:37:28.614Z,24.20
2019-05-18T13:39:59.462Z,24.20
2019-05-18T13:42:30.108Z,24.20
2019-05-18T13:45:02.035Z,24.10
2019-05-18T13:47:32.902Z,24.10
2019-05-18T13:50:03.713Z,24.10
2019-05-18T13:52:35.593Z,24.00
2019-05-18T13:55:06.518Z,24.00
2019-05-18T13:57:37.321Z,23.90
2019-05-18T14:00:09.685Z,23.80
2019-05-18T14:02:40.214Z,23.80
2019-05-18T14:05:11.522Z,23.70
2019-05-18T14:07:42.445Z,23.60
2019-05-18T14:10:13.894Z,23.60
2019-05-18T14:12:44.411Z,23.60
2019-05-18T14:15:16.607Z,23.60
2019-05-18T14:17:47.534Z,23.60
2019-05-18T14:20:19.242Z,23.50
2019-05-18T14:22:49.893Z,23.50
2019-05-18T14:25:20.694Z,23.50
2019-05-18T14:27:51.320Z,23.50
2019-05-18T14:30:22.538Z,23.40
2019-05-18T14:32:53.266Z,23.40
2019-05-18T14:35:24.049Z,23.40
2019-05-18T14:37:54.683Z,23.40
2019-05-18T14:40:25.378Z,23.30
2019-05-18T14:42:56.256Z,23.30
2019-05-18T14:45:27.056Z,23.20
2019-05-18T14:47:57.699Z,23.20
2019-05-18T14:50:28.419Z,23.20
2019-05-18T14:52:59.055Z,23.10
2019-05-18T14:55:33.823Z,23.20
2019-05-18T14:58:02.492Z,23.00
2019-05-18T15:00:33.085Z,22.90
2019-05-18T15:03:03.850Z,22.90
2019-05-18T15:05:34.676Z,22.80
2019-05-18T15:08:05.612Z,22.90
2019-05-18T15:10:36.413Z,22.70
2019-05-18T15:13:06.982Z,22.50
2019-05-18T15:15:38.021Z,22.50
2019-05-18T15:18:09.508Z,22.50
2019-05-18T15:20:40.319Z,22.40
2019-05-18T15:23:11.173Z,22.40
2019-05-18T15:25:50.180Z,22.40
2019-05-18T15:28:14.225Z,22.50
2019-05-18T15:30:44.884Z,22.40
2019-05-18T15:33:16.654Z,22.60
2019-05-18T15:35:47.302Z,22.60
2019-05-18T15:38:19.340Z,22.60
2019-05-18T15:40:50.081Z,22.60
2019-05-18T15:43:20.683Z,22.70
2019-05-18T15:45:52.365Z,22.60
2019-05-18T15:48:23.243Z,22.70
2019-05-18T15:50:53.862Z,22.70
2019-05-18T15:53:24.388Z,22.60
2019-05-18T15:56:05.449Z,22.50
2019-05-18T15:58:27.574Z,22.50
2019-05-18T16:00:58.312Z,22.50
2019-05-18T16:03:29.179Z,22.50
2019-05-18T16:05:59.832Z,22.40
2019-05-18T16:08:30.889Z,22.40
2019-05-18T16:11:01.823Z,22.30
2019-05-18T16:13:32.921Z,22.30
2019-05-18T16:16:03.978Z,22.20
2019-05-18T16:18:34.851Z,22.20
2019-05-18T16:21:05.937Z,22.10
2019-05-18T16:23:36.818Z,22.10
2019-05-18T16:26:20.685Z,22.00
2019-05-18T16:28:42.950Z,22.00
2019-05-18T16:31:13.885Z,21.90
2019-05-18T16:33:45.043Z,21.80
2019-05-18T16:36:15.895Z,21.70
2019-05-18T16:38:46.765Z,21.70
2019-05-18T16:41:17.578Z,21.60
2019-05-18T16:43:48.431Z,21.50
2019-05-18T16:46:19.233Z,21.40
2019-05-18T16:48:49.910Z,21.40
2019-05-18T16:51:20.382Z,21.30
2019-05-18T16:53:51.126Z,21.30
2019-05-18T16:56:34.638Z,21.30
2019-05-18T16:58:54.465Z,21.20
2019-05-18T17:01:25.187Z,21.20
2019-05-18T17:03:55.828Z,21.10
2019-05-18T17:06:26.535Z,21.00
2019-05-18T17:08:57.184Z,20.90
2019-05-18T17:11:48.159Z,20.90
2019-05-18T17:14:19.032Z,20.90
2019-05-18T17:16:49.681Z,20.90
2019-05-18T17:19:20.399Z,20.90
2019-05-18T17:21:51.285Z,20.80
2019-05-18T17:24:21.834Z,20.70
2019-05-18T17:26:53.691Z,20.70
2019-05-18T17:29:24.451Z,20.70
2019-05-18T17:31:54.963Z,20.60
2019-05-18T17:34:25.502Z,20.60
2019-05-18T17:36:56.272Z,20.60
2019-05-18T17:39:27.089Z,20.50
2019-05-18T17:41:57.606Z,20.50
2019-05-18T17:44:28.443Z,20.50
2019-05-18T17:46:59.322Z,20.50
2019-05-18T17:49:29.894Z,20.40
2019-05-18T17:52:00.655Z,20.40
2019-05-18T17:54:31.502Z,20.40
2019-05-18T17:57:08.483Z,20.30
2019-05-18T17:59:34.232Z,20.20
2019-05-18T18:02:06.491Z,20.10
2019-05-18T18:04:37.293Z,20.10
2019-05-18T18:07:08.176Z,20.00
2019-05-18T18:09:38.745Z,19.90
2019-05-18T18:12:09.495Z,19.80
2019-05-18T18:14:40.231Z,19.80
2019-05-18T18:17:11.521Z,19.80
2019-05-18T18:19:42.624Z,19.70
2019-05-18T18:22:13.326Z,19.70
2019-05-18T18:24:44.113Z,19.60
2019-05-18T18:27:24.943Z,19.60
2019-05-18T18:29:47.241Z,19.60
2019-05-18T18:32:20.064Z,19.50
2019-05-18T18:34:50.223Z,19.50
2019-05-18T18:37:20.791Z,19.50
2019-05-18T18:39:51.509Z,19.40
2019-05-18T18:42:23.566Z,19.30
2019-05-18T18:44:54.366Z,19.30
2019-05-18T18:47:25.552Z,19.30
2019-05-18T18:49:56.351Z,19.20
2019-05-18T18:52:27.344Z,19.20
2019-05-18T18:54:57.937Z,19.10
2019-05-18T18:57:40.822Z,19.10
2019-05-18T19:00:02.061Z,19.00
2019-05-18T19:02:34.655Z,19.00
2019-05-18T19:05:05.902Z,18.90
2019-05-18T19:07:36.523Z,18.90
2019-05-18T19:10:08.666Z,18.80
2019-05-18T19:12:40.353Z,18.80
2019-05-18T19:15:11.569Z,18.80
2019-05-18T19:17:42.362Z,18.70
2019-05-18T19:20:13.635Z,18.70
2019-05-18T19:22:44.690Z,18.70
2019-05-18T19:25:15.713Z,18.60
2019-05-18T19:27:54.452Z,18.60
2019-05-18T19:30:19.221Z,18.60
2019-05-18T19:32:50.160Z,18.50
2019-05-18T19:35:21.088Z,18.50
2019-05-18T19:37:51.866Z,18.40
2019-05-18T19:40:22.446Z,18.40
2019-05-18T19:42:52.959Z,18.40
2019-05-18T19:45:24.018Z,18.30
2019-05-18T19:47:55.492Z,18.30
2019-05-18T19:50:26.301Z,18.30
2019-05-18T19:52:57.183Z,18.20
2019-05-18T19:55:27.958Z,18.20
2019-05-18T19:58:08.494Z,18.20
2019-05-18T20:00:30.877Z,18.10
2019-05-18T20:03:01.491Z,18.10
2019-05-18T20:05:32.265Z,18.10
2019-05-18T20:08:03.529Z,18.00
2019-05-18T20:10:34.210Z,18.00
2019-05-18T20:13:05.050Z,18.00
2019-05-18T20:15:35.554Z,18.00
2019-05-18T20:18:06.450Z,17.90
2019-05-18T20:20:37.025Z,17.90
2019-05-18T20:23:08.685Z,17.80
2019-05-18T20:25:39.405Z,17.80
2019-05-18T20:28:22.946Z,17.80
2019-05-18T20:30:42.614Z,17.70
2019-05-18T20:33:13.906Z,17.70
2019-05-18T20:35:44.743Z,17.70
2019-05-18T20:38:16.326Z,17.60
2019-05-18T20:40:47.085Z,17.60
2019-05-18T20:43:17.857Z,17.50
2019-05-18T20:45:48.462Z,17.50
2019-05-18T20:48:19.090Z,17.50
2019-05-18T20:50:49.639Z,17.50
2019-05-18T20:53:20.282Z,17.40
2019-05-18T20:55:51.234Z,17.30
2019-05-18T20:58:21.870Z,17.30
2019-05-18T21:00:52.789Z,17.20
2019-05-18T21:03:23.656Z,17.20
2019-05-18T21:05:55.201Z,17.10
2019-05-18T21:08:26.315Z,17.10
2019-05-18T21:10:56.972Z,17.10
2019-05-18T21:13:27.661Z,17.00
2019-05-18T21:15:58.470Z,17.00
2019-05-18T21:18:29.577Z,16.90
2019-05-18T21:21:00.193Z,16.80
2019-05-18T21:23:31.036Z,16.80
2019-05-18T21:26:03.072Z,16.80
2019-05-18T21:28:33.845Z,16.80
2019-05-18T21:31:05.421Z,16.70
2019-05-18T21:33:35.972Z,16.70
2019-05-18T21:36:06.448Z,16.70
2019-05-18T21:38:37.402Z,16.70
2019-05-18T21:41:08.469Z,16.60
2019-05-18T21:43:39.353Z,16.70
2019-05-18T21:46:10.028Z,16.60
2019-05-18T21:48:40.885Z,16.60
2019-05-18T21:51:11.741Z,16.60
2019-05-18T21:53:42.507Z,16.60
2019-05-18T21:56:13.146Z,16.60
2019-05-18T21:58:43.923Z,16.50
2019-05-18T22:01:14.666Z,16.50
2019-05-18T22:03:48.164Z,16.50
2019-05-18T22:06:17.959Z,16.50
2019-05-18T22:08:48.824Z,16.50
2019-05-18T22:11:19.577Z,16.40
2019-05-18T22:13:50.811Z,16.40
2019-05-18T22:16:21.629Z,16.30
2019-05-18T22:18:52.541Z,16.30
2019-05-18T22:21:23.314Z,16.30
2019-05-18T22:23:54.455Z,16.30
2019-05-18T22:26:26.520Z,16.30
2019-05-18T22:28:57.448Z,16.20
2019-05-18T22:31:28.215Z,16.20
2019-05-18T22:33:58.789Z,16.20
2019-05-18T22:36:29.905Z,16.10
2019-05-18T22:39:00.761Z,16.20
2019-05-18T22:41:32.830Z,16.10
2019-05-18T22:44:03.356Z,16.10
2019-05-18T22:46:34.120Z,16.10
2019-05-18T22:49:04.858Z,16.10
2019-05-18T22:51:35.774Z,16.00
2019-05-18T22:54:06.462Z,16.00
2019-05-18T22:56:37.151Z,16.00
2019-05-18T22:59:07.986Z,16.00
2019-05-18T23:01:38.511Z,16.00
2019-05-18T23:04:09.382Z,15.90
2019-05-18T23:06:40.197Z,15.90
2019-05-18T23:09:11.113Z,15.80
2019-05-18T23:11:42.208Z,15.80
2019-05-18T23:14:12.802Z,15.80
2019-05-18T23:16:43.321Z,15.80
2019-05-18T23:19:14.182Z,15.80
2019-05-18T23:21:44.975Z,15.80
2019-05-18T23:24:15.741Z,15.70
2019-05-18T23:26:47.637Z,15.80
2019-05-18T23:29:18.378Z,15.70
2019-05-18T23:31:49.201Z,15.70
2019-05-18T23:34:19.889Z,15.70
2019-05-18T23:36:50.811Z,15.70
2019-05-18T23:39:21.577Z,15.70
2019-05-18T23:41:52.199Z,15.60
2019-05-18T23:44:23.177Z,15.60
2019-05-18T23:46:53.730Z,15.60
2019-05-18T23:49:24.738Z,15.60
2019-05-18T23:51:56.010Z,15.60
2019-05-18T23:54:26.505Z,15.60
2019-05-18T23:56:57.231Z,15.60
2019-05-18T23:59:27.680Z,15.60
